Latest Weather Observations for Hamilton

IDV60801

Issued at 3:31 am EST Wednesday 29 July 2015 (issued every 30 minutes, with the page automatically refreshed every 10 minutes)

About weather observations | Map of weather stations | Latest weather observations for VIC | Other Formats
Station Details ID: 090173 Name: HAMILTON AIRPORT Lat: -37.65 Lon: 142.06 Height: 241.1 m
Data from the previous 72 hours. | See also: Recent months at Hamilton
Date/Time
EST
Temp
°C
App
Temp
°C
Dew
Point
Rel
Hum
%
Delta-T
°C
Wind Press
QNH
hPa
Press
MSL
hPa
Rain
since 9 am
mm
Dir
 
Spd
km/h
Gust
km/h
Spd
kts
Gust
kts
29/03:30am 6.3 2.9 6.0 98 0.1 N 13 17 7 9 1031.7 1032.2 1.6
29/03:00am 5.9 2.4 5.6 98 0.1 N 13 17 7 9 1031.8 1032.3 1.6
29/02:30am 5.6 2.4 5.3 98 0.1 N 11 17 6 9 1032.1 1032.6 1.6
29/02:00am 4.6 1.2 4.2 97 0.2 N 11 13 6 7 1032.3 1032.8 1.6
29/01:39am 4.3 1.3 3.9 97 0.2 N 9 11 5 6 1032.4 1033.0 1.6
29/01:30am 4.2 1.1 3.8 97 0.2 N 9 11 5 6 1032.5 1033.1 1.6
29/01:00am 4.6 1.2 4.2 97 0.2 N 11 13 6 7 1032.8 1033.3 1.6
29/12:30am 5.0 2.1 4.4 96 0.3 NNW 9 11 5 6 1033.4 1033.9 1.6
29/12:22am 5.5 2.6 4.9 96 0.3 NNW 9 11 5 6 1033.1 1033.6 1.6
29/12:11am 5.7 2.9 5.1 96 0.3 NNW 9 11 5 6 1033.0 1033.5 1.6
29/12:00am 5.3 2.4 4.7 96 0.3 NW 9 9 5 5 1033.3 1033.8 1.6
 
Date/Time
EST
Temp
°C
App
Temp
°C
Dew
Point
Rel
Hum
%
Delta-T
°C
Wind Press
QNH
hPa
Press
MSL
hPa
Rain
since 9 am
mm
Dir
 
Spd
km/h
Gust
km/h
Spd
kts
Gust
kts
28/11:55pm 5.4 2.5 4.8 96 0.3 NNW 9 9 5 5 1033.3 1033.8 1.6
28/11:30pm 5.8 2.6 5.2 96 0.3 N 11 11 6 6 1033.0 1033.5 1.6
28/11:11pm 5.7 2.5 5.1 96 0.3 N 11 11 6 6 1033.2 1033.7 1.6
28/11:00pm 5.7 2.9 5.0 95 0.3 NNW 9 11 5 6 1033.4 1033.9 1.6
28/10:45pm 5.9 3.1 5.0 94 0.4 NNW 9 9 5 5 1033.7 1034.2 1.6
28/10:30pm 6.9 4.7 6.0 94 0.4 NNW 7 9 4 5 1033.7 1034.2 1.6
28/10:00pm 6.9 4.2 5.8 93 0.5 NNW 9 11 5 6 1034.0 1034.5 1.6
28/09:30pm 7.7 5.8 6.5 92 0.6 NW 6 7 3 4 1033.8 1034.3 1.6
28/09:00pm 7.7 5.6 6.6 93 0.5 WNW 7 9 4 5 1034.0 1034.5 1.6
28/08:30pm 7.4 5.3 6.5 94 0.4 NNW 7 9 4 5 1034.0 1034.5 1.6
28/08:00pm 6.9 4.6 5.7 92 0.5 NNW 7 9 4 5 1034.2 1034.7 1.6
28/07:30pm 7.7 5.1 6.3 91 0.6 NNW 9 13 5 7 1034.1 1034.6 1.6
28/07:00pm 8.2 6.1 6.5 89 0.8 NW 7 9 4 5 1034.0 1034.5 1.6
28/06:30pm 8.4 6.2 6.4 87 0.9 NW 7 9 4 5 1033.8 1034.3 1.6
28/06:00pm 8.6 6.5 6.6 87 0.9 NW 7 11 4 6 1033.8 1034.3 1.6
28/05:30pm 9.1 6.7 7.2 88 0.9 NW 9 9 5 5 1033.5 1034.0 1.6
28/05:00pm 9.4 6.7 7.5 88 0.9 WNW 11 13 6 7 1033.6 1034.1 1.6
28/04:30pm 9.7 6.7 7.8 88 0.9 W 13 19 7 10 1033.7 1034.2 1.6
28/04:11pm 9.5 6.5 7.8 89 0.8 W 13 17 7 9 1033.6 1034.1 1.6
28/04:00pm 9.3 5.7 8.2 93 0.5 W 17 24 9 13 1033.6 1034.1 1.6
28/03:55pm 9.2 5.1 8.0 92 0.6 W 19 24 10 13 1033.7 1034.2 1.6
28/03:53pm 9.2 5.1 7.8 91 0.7 W 19 24 10 13 1033.7 1034.2 1.6
28/03:38pm 9.3 5.3 8.1 92 0.6 W 19 26 10 14 1033.7 1034.2 1.6
28/03:30pm 9.4 5.1 8.0 91 0.7 W 20 28 11 15 1033.5 1034.0 1.6
28/03:00pm 10.3 8.3 8.6 89 0.8 W 9 13 5 7 1033.3 1033.8 1.4
28/02:58pm 10.2 8.2 8.8 91 0.7 W 9 13 5 7 1033.4 1033.9 1.4
28/02:41pm 9.3 5.3 8.1 92 0.6 W 19 24 10 13 1033.6 1034.1 1.4
28/02:35pm 9.4 5.7 7.8 90 0.8 WSW 17 24 9 13 1033.7 1034.2 1.2
28/02:30pm 9.3 5.9 7.6 89 0.8 WSW 15 22 8 12 1033.6 1034.1 1.2
28/02:10pm 9.7 6.4 8.1 90 0.8 WSW 15 22 8 12 1033.7 1034.2 0.6
28/02:00pm 9.8 6.5 7.9 88 0.9 WNW 15 19 8 10 1033.8 1034.3 0.4
28/01:45pm 10.2 6.5 8.1 87 1.0 WNW 17 24 9 13 1033.9 1034.4 0.4
28/01:30pm 10.4 6.8 8.5 88 0.9 WNW 17 20 9 11 1034.2 1034.7 0.4
28/01:23pm 10.3 6.9 9.1 92 0.6 WNW 17 22 9 12 1034.3 1034.8 0.4
28/01:20pm 9.7 6.1 8.5 92 0.6 WNW 17 22 9 12 1034.4 1034.9 0.4
28/01:09pm 9.0 5.3 7.9 93 0.5 W 17 24 9 13 1034.5 1035.0 0.4
28/01:00pm 9.2 5.1 7.8 91 0.7 W 19 24 10 13 1034.5 1035.0 0.4
28/12:57pm 9.3 5.5 7.6 89 0.8 WNW 17 24 9 13 1034.4 1034.9 0.2
28/12:40pm 10.2 6.8 7.6 84 1.3 NW 15 22 8 12 1034.6 1035.1 0.0
28/12:30pm 10.1 7.1 7.7 85 1.2 NW 13 17 7 9 1034.7 1035.2 0.0
28/12:00pm 9.2 5.8 7.6 90 0.8 NW 15 19 8 10 1035.3 1035.8 0.0
28/11:30am 8.7 4.9 7.5 92 0.6 WNW 17 24 9 13 1035.8 1036.3 0.0
28/11:00am 8.5 5.2 8.1 97 0.2 NNW 15 19 8 10 1035.7 1036.2 0.0
28/10:30am 7.8 4.8 7.5 98 0.1 NNW 13 17 7 9 1035.9 1036.5 0.0
28/10:00am 6.6 3.3 6.3 98 0.1 NNW 13 17 7 9 1035.7 1036.2 0.0
28/09:56am 6.5 3.2 6.2 98 0.1 NNW 13 17 7 9 1035.7 1036.2 0.0
28/09:30am 5.9 2.1 5.6 98 0.1 NNW 15 19 8 10 1035.7 1036.2 0.0
28/09:00am 5.3 1.3 5.0 98 0.1 NNW 15 19 8 10 1035.7 1036.2 0.2
28/08:30am 5.1 1.1 4.8 98 0.1 NNW 15 19 8 10 1035.5 1036.0 0.2
28/08:00am 5.0 1.0 4.7 98 0.1 NNW 15 19 8 10 1035.3 1035.8 0.2
28/07:30am 5.0 1.0 4.7 98 0.1 NNW 15 19 8 10 1035.2 1035.7 0.2
28/07:00am 4.7 1.0 4.4 98 0.1 N 13 17 7 9 1034.7 1035.2 0.2
28/06:30am 4.9 1.2 4.6 98 0.1 NNW 13 15 7 8 1034.5 1035.0 0.2
28/06:00am 4.8 1.1 4.5 98 0.1 NNW 13 17 7 9 1033.9 1034.4 0.2
28/05:30am 4.6 0.9 4.3 98 0.1 NNW 13 17 7 9 1033.6 1034.1 0.2
28/05:00am 4.9 0.8 4.6 98 0.1 NNW 15 17 8 9 1033.5 1034.0 0.2
28/04:30am 5.0 1.3 4.7 98 0.1 NNW 13 17 7 9 1033.4 1033.9 0.2
28/04:00am 5.1 1.5 4.8 98 0.1 NNW 13 17 7 9 1033.5 1034.0 0.2
28/03:30am 4.9 1.6 4.6 98 0.1 NNW 11 13 6 7 1033.7 1034.2 0.2
28/03:00am 4.5 1.1 4.2 98 0.1 NNW 11 13 6 7 1033.8 1034.3 0.2
28/02:30am 3.9 0.0 3.6 98 0.1 N 13 15 7 8 1033.8 1034.3 0.2
28/02:00am 3.8 -0.1 3.5 98 0.1 N 13 17 7 9 1033.5 1034.0 0.2
28/01:30am 2.9 -0.8 2.5 97 0.2 NNW 11 13 6 7 1033.4 1033.9 0.0
28/01:00am 2.3 -1.1 1.9 97 0.2 N 9 13 5 7 1033.1 1033.6 0.0
28/12:35am 2.8 -0.5 2.4 97 0.2 NW 9 9 5 5 1033.1 1033.6 0.0
28/12:30am 3.1 -0.2 2.7 97 0.2 NW 9 9 5 5 1033.0 1033.5 0.0
28/12:00am 3.4 0.2 3.0 97 0.2 NW 9 11 5 6 1032.9 1033.4 0.0
 
Date/Time
EST
Temp
°C
App
Temp
°C
Dew
Point
Rel
Hum
%
Delta-T
°C
Wind Press
QNH
hPa
Press
MSL
hPa
Rain
since 9 am
mm
Dir
 
Spd
km/h
Gust
km/h
Spd
kts
Gust
kts
27/11:56pm 3.3 0.1 2.9 97 0.2 NW 9 11 5 6 1032.8 1033.3 0.0
27/11:30pm 3.4 0.2 3.0 97 0.2 NW 9 9 5 5 1032.8 1033.3 0.0
27/11:21pm 3.6 0.4 3.2 97 0.2 NW 9 9 5 5 1032.7 1033.2 0.0
27/11:00pm 4.0 0.9 3.6 97 0.2 NW 9 9 5 5 1032.9 1033.4 0.0
27/10:30pm 4.3 1.6 3.9 97 0.2 NW 7 9 4 5 1032.9 1033.4 0.0
27/10:00pm 3.9 0.8 3.5 97 0.2 NW 9 11 5 6 1032.9 1033.4 0.0
27/09:30pm 3.4 0.2 2.8 96 0.2 NW 9 11 5 6 1032.8 1033.3 0.0
27/09:10pm 3.8 0.6 3.2 96 0.2 NW 9 11 5 6 1032.7 1033.2 0.0
27/09:00pm 4.2 1.1 3.5 95 0.3 NW 9 11 5 6 1032.7 1033.2 0.0
27/08:30pm 4.8 1.8 4.1 95 0.3 WNW 9 13 5 7 1032.5 1033.1 0.0
27/08:00pm 5.5 2.2 4.5 93 0.4 WNW 11 15 6 8 1032.5 1033.1 0.0
27/07:30pm 6.0 2.7 4.3 89 0.7 W 11 13 6 7 1032.4 1033.0 0.0
27/07:00pm 6.3 3.0 4.5 88 0.8 W 11 13 6 7 1032.2 1032.7 0.0
27/06:30pm 6.7 3.5 5.0 89 0.8 W 11 13 6 7 1031.9 1032.4 0.0
27/06:00pm 7.3 4.5 5.1 86 1.0 W 9 13 5 7 1031.6 1032.1 0.0
27/05:30pm 8.5 4.2 5.1 79 1.5 WSW 17 20 9 11 1031.3 1031.8 0.0
27/05:00pm 9.5 5.7 5.9 78 1.7 WSW 15 17 8 9 1031.1 1031.6 0.0
27/04:30pm 9.9 5.7 5.5 74 2.0 W 17 24 9 13 1031.0 1031.5 0.0
27/04:00pm 10.1 5.5 5.7 74 2.0 W 19 24 10 13 1030.8 1031.3 0.0
27/03:30pm 10.3 5.8 6.1 75 2.0 WNW 19 28 10 15 1030.7 1031.2 0.0
27/03:00pm 10.7 5.1 5.5 70 2.4 W 24 30 13 16 1030.4 1030.9 0.0
27/02:30pm 9.6 4.4 5.4 75 1.9 W 22 28 12 15 1030.1 1030.6 0.0
27/02:00pm 11.0 5.7 5.1 67 2.7 W 22 30 12 16 1029.8 1030.3 0.0
27/01:30pm 10.2 5.6 5.8 74 2.1 W 19 24 10 13 1029.9 1030.4 0.0
27/01:00pm 9.2 4.0 5.6 78 1.6 W 22 32 12 17 1030.0 1030.5 0.0
27/12:30pm 9.7 4.2 4.1 68 2.5 W 22 33 12 18 1030.4 1030.9 0.0
27/12:00pm 9.4 4.1 5.2 75 1.9 W 22 30 12 16 1030.7 1031.2 0.0
27/11:30am 9.3 4.6 5.3 76 1.8 W 19 24 10 13 1030.8 1031.3 0.0
27/11:00am 8.6 3.7 5.0 78 1.6 W 20 28 11 15 1030.8 1031.3 0.0
27/10:30am 7.8 2.9 4.9 82 1.3 W 20 28 11 15 1030.7 1031.2 0.0
27/10:00am 7.0 2.5 4.3 83 1.2 W 17 22 9 12 1030.3 1030.8 0.0
27/09:30am 5.5 1.3 3.7 88 0.8 W 15 20 8 11 1030.0 1030.5 0.0
27/09:00am 5.3 1.5 3.8 90 0.6 W 13 20 7 11 1029.5 1030.0 2.6
27/08:30am 4.1 0.2 3.2 94 0.4 WNW 13 17 7 9 1029.2 1029.7 2.6
27/08:00am 1.7 -1.5 1.0 95 0.3 NW 7 9 4 5 1029.0 1029.5 2.6
27/07:30am 1.5 -2.1 0.8 95 0.3 NW 9 11 5 6 1028.6 1029.0 2.6
27/07:00am 1.5 -2.9 0.6 94 0.3 NW 13 15 7 8 1028.1 1028.6 2.6
27/06:30am 1.7 -2.6 0.8 94 0.3 WNW 13 17 7 9 1027.7 1028.2 2.6
27/06:00am 1.8 -2.5 0.8 93 0.4 NW 13 15 7 8 1027.4 1027.9 2.6
27/05:30am 2.2 -2.1 1.2 93 0.4 NW 13 15 7 8 1027.2 1027.7 2.6
27/05:00am 2.0 -1.9 1.1 94 0.3 NW 11 13 6 7 1026.9 1027.4 2.6
27/04:30am 2.6 -2.0 1.6 93 0.4 WNW 15 17 8 9 1026.7 1027.2 2.6
27/04:00am 2.8 -1.0 1.6 92 0.5 WNW 11 15 6 8 1026.5 1027.0 2.6
27/03:30am 3.0 0.0 1.8 92 0.5 W 7 11 4 6 1026.6 1027.1 2.4
27/03:00am 2.5 -1.8 1.2 91 0.5 WNW 13 17 7 9 1026.1 1026.6 2.4
27/02:30am 2.5 -1.8 1.2 91 0.5 WNW 13 17 7 9 1026.0 1026.5 2.4
27/02:00am 1.9 -2.4 0.9 93 0.4 WNW 13 15 7 8 1025.6 1026.1 2.4
27/01:30am 2.1 -1.9 0.6 90 0.6 NW 11 13 6 7 1025.5 1025.9 2.4
27/01:00am 1.7 -2.7 0.4 91 0.5 WNW 13 15 7 8 1025.3 1025.7 2.4
27/12:30am 1.4 -3.0 0.4 93 0.4 WNW 13 17 7 9 1025.1 1025.5 2.4
27/12:00am 1.6 -3.1 0.6 93 0.4 NW 15 17 8 9 1024.7 1025.1 2.4
 
Date/Time
EST
Temp
°C
App
Temp
°C
Dew
Point
Rel
Hum
%
Delta-T
°C
Wind Press
QNH
hPa
Press
MSL
hPa
Rain
since 9 am
mm
Dir
 
Spd
km/h
Gust
km/h
Spd
kts
Gust
kts
26/11:30pm 2.4 -1.9 0.9 90 0.6 WNW 13 15 7 8 1024.6 1025.0 2.4
26/11:21pm 2.5 -1.4 1.0 90 0.6 WNW 11 15 6 8 1024.5 1024.9 2.4
26/11:10pm 1.9 -2.1 0.4 90 0.6 WNW 11 13 6 7 1024.5 1024.9 2.4
26/11:00pm 1.9 -2.1 0.4 90 0.6 WNW 11 13 6 7 1024.4 1024.8 2.4
26/10:30pm 3.3 -1.3 1.3 87 0.8 WNW 15 19 8 10 1024.1 1024.5 2.4
26/10:00pm 3.5 -1.1 1.4 86 0.8 W 15 24 8 13 1023.8 1024.3 2.4
26/09:30pm 2.4 -1.5 0.9 90 0.6 WNW 11 13 6 7 1023.6 1024.1 2.4
26/09:00pm 4.2 0.0 1.7 84 1.0 W 13 17 7 9 1023.4 1023.9 2.4
26/08:30pm 4.0 -0.6 1.4 83 1.0 WNW 15 19 8 10 1022.7 1023.2 2.4
26/08:00pm 4.1 -0.9 1.6 84 1.0 WSW 17 22 9 12 1022.3 1022.8 2.4
26/07:30pm 4.5 -1.1 1.5 81 1.2 W 20 32 11 17 1021.8 1022.2 2.4
26/07:00pm 4.5 -0.5 1.2 79 1.3 W 17 20 9 11 1021.1 1021.5 2.4
26/06:30pm 4.8 -0.8 1.5 79 1.3 W 20 35 11 19 1020.6 1021.0 2.4
26/06:00pm 4.6 -0.3 2.0 83 1.0 W 17 24 9 13 1020.3 1020.7 2.4
26/05:30pm 4.3 -1.1 2.7 89 0.7 WSW 20 22 11 12 1019.6 1020.0 2.4
26/05:15pm 4.4 -0.9 2.8 89 0.7 WSW 20 24 11 13 1019.2 1019.7 2.4
26/05:00pm 4.3 -4.3 2.8 90 0.6 WSW 37 56 20 30 1019.0 1019.5 2.4
26/04:50pm 3.4 -4.1 1.3 86 0.8 WSW 30 54 16 29 1019.3 1019.8 1.4
26/04:49pm 4.0 -3.1 1.4 83 1.0 WSW 28 54 15 29 1019.3 1019.8 1.0
26/04:30pm 6.4 -0.2 2.3 75 1.7 WSW 26 33 14 18 1018.5 1018.9 0.6
26/04:00pm 6.7 -1.3 1.8 71 2.0 WSW 33 44 18 24 1018.3 1018.7 0.6
26/03:30pm 5.2 -4.6 2.2 81 1.2 WSW 43 67 23 36 1017.9 1018.3 0.6
26/03:21pm 7.6 -0.3 2.3 69 2.2 W 33 54 18 29 1017.5 1017.9 0.2
26/03:00pm 8.3 1.5 3.0 69 2.3 W 28 39 15 21 1017.4 1017.8 0.2
26/02:30pm 6.7 -1.9 2.8 76 1.6 W 37 52 20 28 1017.0 1017.4 0.2
26/02:00pm 7.7 -0.5 2.8 71 2.1 W 35 48 19 26 1016.6 1017.0 0.2
26/01:44pm 7.3 0.0 2.4 71 2.1 W 30 50 16 27 1016.4 1016.8 0.2
26/01:30pm 8.1 0.4 3.2 71 2.1 W 33 46 18 25 1016.3 1016.7 0.2
26/01:00pm 7.7 -0.6 2.2 68 2.3 WNW 35 56 19 30 1016.0 1016.4 0.2
26/12:34pm 7.3 -1.4 2.0 69 2.2 WNW 37 61 20 33 1015.6 1016.0 0.2
26/12:30pm 8.6 0.5 3.0 68 2.4 WNW 35 48 19 26 1015.8 1016.2 0.2
26/12:00pm 8.4 0.0 1.8 63 2.8 W 35 52 19 28 1015.7 1016.1 0.2
26/11:30am 7.9 0.2 2.4 68 2.3 W 32 41 17 22 1015.5 1015.9 0.2
26/11:03am 7.2 -0.1 2.7 73 1.9 WNW 30 48 16 26 1015.7 1016.1 0.2
26/11:00am 7.2 -0.5 2.3 71 2.0 WNW 32 48 17 26 1015.7 1016.1 0.2
26/10:30am 6.8 0.0 3.1 77 1.6 W 28 39 15 21 1015.6 1016.0 0.2
26/10:00am 5.5 -0.6 3.0 84 1.0 WNW 24 33 13 18 1015.1 1015.6 0.2
26/09:30am 4.3 -2.3 2.2 86 0.9 WNW 26 35 14 19 1014.7 1015.1 0.2
26/09:00am 4.1 -3.0 1.5 83 1.0 WNW 28 35 15 19 1014.3 1014.7 7.8
26/08:30am 4.0 -2.6 2.0 87 0.8 NW 26 37 14 20 1013.4 1013.8 7.8
26/08:00am 3.3 -3.4 1.5 88 0.7 WNW 26 35 14 19 1013.0 1013.4 7.8
26/07:30am 3.6 -1.8 2.3 91 0.5 WNW 20 28 11 15 1012.8 1013.2 7.8
26/07:00am 4.0 -2.2 2.2 88 0.7 WNW 24 33 13 18 1012.2 1012.6 7.6
26/06:48am 4.0 -2.6 2.2 88 0.7 WNW 26 39 14 21 1012.0 1012.4 7.6
26/06:30am 4.3 -1.5 2.3 87 0.8 WNW 22 28 12 15 1011.9 1012.3 7.2
26/06:00am 4.2 -1.6 2.2 87 0.8 WNW 22 28 12 15 1011.1 1011.4 6.8
26/05:30am 4.3 -1.1 2.2 86 0.9 WNW 20 33 11 18 1010.9 1011.2 6.8
26/05:00am 5.1 -1.1 2.3 82 1.1 W 24 41 13 22 1010.4 1010.8 6.2
26/04:30am 5.3 -1.8 1.4 76 1.6 WNW 28 37 15 20 1010.0 1010.4 6.2
26/04:00am 4.9 -1.7 1.9 81 1.2 WNW 26 35 14 19 1009.9 1010.3 6.2

Other Formats:

Comma delimited format used in spreadsheet applications
http://www.bom.gov.au/fwo/IDV60801/IDV60801.94829.axf

JavaScript Object Notation format (JSON) in row-major order
http://www.bom.gov.au/fwo/IDV60801/IDV60801.94829.json